createdAt,value
2022-07-30T00:01:49.279Z,26.96
2022-07-30T00:04:53.461Z,27.50
2022-07-30T00:07:57.775Z,28.04
2022-07-30T00:11:02.251Z,27.82
2022-07-30T00:14:06.686Z,27.29
2022-07-30T00:17:11.124Z,27.11
2022-07-30T00:20:15.827Z,27.10
2022-07-30T00:23:20.829Z,27.59
2022-07-30T00:26:25.674Z,27.37
2022-07-30T00:29:30.887Z,27.27
2022-07-30T00:32:34.823Z,27.15
2022-07-30T00:35:40.543Z,27.37
2022-07-30T00:38:44.784Z,28.00
2022-07-30T00:41:57.109Z,27.79
2022-07-30T00:45:01.777Z,27.63
2022-07-30T00:48:08.023Z,27.52
2022-07-30T00:51:12.767Z,27.12
2022-07-30T00:54:17.457Z,27.21
2022-07-30T00:57:21.593Z,27.40
2022-07-30T01:00:26.617Z,27.56
2022-07-30T01:03:30.868Z,27.36
2022-07-30T01:06:36.608Z,27.36
2022-07-30T01:09:41.083Z,27.52
2022-07-30T01:12:56.309Z,27.39
2022-07-30T01:16:00.996Z,27.12
2022-07-30T01:19:29.100Z,27.39
2022-07-30T01:23:10.759Z,27.42
2022-07-30T01:26:20.580Z,27.29
2022-07-30T01:29:26.464Z,27.56
2022-07-30T01:32:34.091Z,27.41
2022-07-30T01:35:40.270Z,27.58
2022-07-30T01:38:46.483Z,27.40
2022-07-30T01:41:53.988Z,27.33
2022-07-30T01:45:00.483Z,27.10
2022-07-30T01:48:10.171Z,27.09
2022-07-30T01:51:18.177Z,27.07
2022-07-30T01:54:28.455Z,27.13
2022-07-30T01:57:36.819Z,27.01
2022-07-30T02:00:45.355Z,27.06
2022-07-30T02:03:49.770Z,27.03
2022-07-30T02:07:00.630Z,27.03
2022-07-30T02:10:13.086Z,26.84
2022-07-30T02:13:30.000Z,26.99
2022-07-30T02:16:40.400Z,27.03
2022-07-30T02:19:46.715Z,26.94
2022-07-30T02:22:52.152Z,26.78
2022-07-30T02:26:01.779Z,27.30
2022-07-30T02:29:11.411Z,27.78
2022-07-30T02:32:21.652Z,27.81
2022-07-30T02:35:29.118Z,27.84
2022-07-30T02:38:35.414Z,27.93
2022-07-30T02:41:41.309Z,28.10
2022-07-30T02:44:48.218Z,28.08
2022-07-30T02:47:59.848Z,28.12
2022-07-30T02:51:05.813Z,27.96
2022-07-30T02:54:12.615Z,28.03
2022-07-30T02:57:19.079Z,28.46
2022-07-30T03:00:26.248Z,28.94
2022-07-30T03:03:31.655Z,29.80
2022-07-30T03:06:37.948Z,29.83
2022-07-30T03:09:52.064Z,29.66
2022-07-30T03:12:57.507Z,29.81
2022-07-30T03:16:03.708Z,30.42
2022-07-30T03:19:12.823Z,30.83
2022-07-30T03:22:19.587Z,31.02
2022-07-30T03:25:28.854Z,30.65
2022-07-30T03:28:35.711Z,30.44
2022-07-30T03:31:41.987Z,30.97
2022-07-30T03:34:48.397Z,30.72
2022-07-30T03:37:54.477Z,30.95
2022-07-30T03:41:00.144Z,30.31
2022-07-30T03:44:05.376Z,30.02
2022-07-30T03:47:09.992Z,29.87
2022-07-30T03:50:21.023Z,30.08
2022-07-30T03:53:28.308Z,29.80
2022-07-30T03:57:07.871Z,29.67
2022-07-30T04:00:19.015Z,29.52
2022-07-30T04:03:31.846Z,29.31
2022-07-30T04:06:41.000Z,29.26
2022-07-30T04:09:45.226Z,29.02
2022-07-30T04:13:09.974Z,28.98
2022-07-30T04:16:41.204Z,29.15
2022-07-30T04:19:53.141Z,29.88
2022-07-30T04:22:59.521Z,30.44
2022-07-30T04:26:05.360Z,29.96
2022-07-30T04:29:14.267Z,29.99
2022-07-30T04:32:23.374Z,29.84
2022-07-30T04:35:51.431Z,29.52
2022-07-30T04:39:09.526Z,29.36
2022-07-30T04:42:14.232Z,29.16
2022-07-30T04:45:21.345Z,29.00
2022-07-30T04:48:32.048Z,28.94
2022-07-30T04:51:47.647Z,28.76
2022-07-30T04:55:03.319Z,28.45
2022-07-30T04:58:08.894Z,28.67
2022-07-30T05:01:18.064Z,28.83
2022-07-30T05:04:25.378Z,28.79
2022-07-30T05:07:31.894Z,28.66
2022-07-30T05:10:39.508Z,28.50
2022-07-30T05:13:46.305Z,28.38
2022-07-30T05:16:54.120Z,28.42
2022-07-30T05:19:59.982Z,28.47
2022-07-30T05:23:08.489Z,28.95
2022-07-30T05:26:15.042Z,29.43
2022-07-30T05:29:22.235Z,29.76
2022-07-30T05:32:33.536Z,30.15
2022-07-30T05:35:39.365Z,30.38
2022-07-30T05:38:43.793Z,30.38
2022-07-30T05:42:07.129Z,30.31
2022-07-30T05:45:20.937Z,30.45
2022-07-30T05:48:25.223Z,30.61
2022-07-30T05:51:30.111Z,30.55
2022-07-30T05:54:34.722Z,30.72
2022-07-30T05:57:57.635Z,30.76
2022-07-30T06:01:02.898Z,30.77
2022-07-30T06:04:08.629Z,30.75
2022-07-30T06:07:23.736Z,30.59
2022-07-30T06:10:30.320Z,30.41
2022-07-30T06:13:37.053Z,30.22
2022-07-30T06:16:41.577Z,30.49
2022-07-30T06:19:45.746Z,30.87
2022-07-30T06:22:49.983Z,30.80
2022-07-30T06:26:01.703Z,30.35
2022-07-30T06:29:07.251Z,30.16
2022-07-30T06:32:11.881Z,30.13
2022-07-30T06:35:16.698Z,30.15
2022-07-30T06:38:21.307Z,30.23
2022-07-30T06:41:32.907Z,30.40
2022-07-30T06:44:37.455Z,30.31
2022-07-30T06:48:00.395Z,30.29
2022-07-30T06:51:08.134Z,30.59
2022-07-30T06:54:13.945Z,30.65
2022-07-30T06:57:42.291Z,30.82
2022-07-30T07:01:11.295Z,30.64
2022-07-30T07:04:16.418Z,30.61
2022-07-30T07:07:40.410Z,30.55
2022-07-30T07:10:47.023Z,30.45
2022-07-30T07:14:17.001Z,30.23
2022-07-30T07:17:21.859Z,30.09
2022-07-30T07:20:36.529Z,30.03
2022-07-30T07:23:44.489Z,30.14
2022-07-30T07:27:15.611Z,29.82
2022-07-30T07:30:23.741Z,29.58
2022-07-30T07:33:28.406Z,29.46
2022-07-30T07:36:32.803Z,29.37
2022-07-30T07:39:41.981Z,29.10
2022-07-30T07:42:46.863Z,28.98
2022-07-30T07:45:55.098Z,28.73
2022-07-30T07:49:02.157Z,28.72
2022-07-30T07:52:18.721Z,28.53
2022-07-30T07:55:23.823Z,27.31
2022-07-30T07:58:29.478Z,26.29
2022-07-30T08:01:37.936Z,25.75
2022-07-30T08:05:13.210Z,25.51
2022-07-30T08:08:28.207Z,25.44
2022-07-30T08:11:55.312Z,25.12
2022-07-30T08:15:22.449Z,24.94
2022-07-30T08:18:45.108Z,24.54
2022-07-30T08:22:05.228Z,24.54
2022-07-30T08:25:10.252Z,24.53
2022-07-30T08:28:36.156Z,24.48
2022-07-30T08:31:39.612Z,24.55
2022-07-30T08:34:44.444Z,24.34
2022-07-30T08:37:50.019Z,24.47
2022-07-30T08:40:59.615Z,24.46
2022-07-30T08:44:07.884Z,24.44
2022-07-30T08:47:22.312Z,24.58
2022-07-30T08:50:46.435Z,24.48
2022-07-30T08:54:09.139Z,24.70
2022-07-30T08:57:14.802Z,24.57
2022-07-30T09:00:20.374Z,24.65
2022-07-30T09:03:26.787Z,24.62
2022-07-30T09:06:34.375Z,24.68
2022-07-30T09:09:42.114Z,24.64
2022-07-30T09:12:46.464Z,24.51
2022-07-30T09:15:51.126Z,24.59
2022-07-30T09:18:56.202Z,24.77
2022-07-30T09:22:02.476Z,24.91
2022-07-30T09:25:41.328Z,24.93
2022-07-30T09:29:21.619Z,24.99
2022-07-30T09:32:54.443Z,24.92
2022-07-30T09:36:37.077Z,24.74
2022-07-30T09:40:13.258Z,24.47
2022-07-30T09:43:55.400Z,24.61
2022-07-30T09:47:30.642Z,24.60
2022-07-30T09:50:35.489Z,24.75
2022-07-30T09:54:00.242Z,24.56
2022-07-30T09:57:25.515Z,24.60
2022-07-30T10:00:33.693Z,24.61
2022-07-30T10:04:03.910Z,24.44
2022-07-30T10:07:31.270Z,24.39
2022-07-30T10:10:50.977Z,24.52
2022-07-30T10:13:57.832Z,24.25
2022-07-30T10:17:03.661Z,24.43
2022-07-30T10:20:13.785Z,24.41
2022-07-30T10:23:36.878Z,24.25
2022-07-30T10:27:11.053Z,24.24
2022-07-30T10:30:27.814Z,24.19
2022-07-30T10:33:36.477Z,24.21
2022-07-30T10:36:54.734Z,24.27
2022-07-30T10:40:08.815Z,24.16
2022-07-30T10:43:31.757Z,24.20
2022-07-30T10:46:54.762Z,24.17
2022-07-30T10:50:15.636Z,24.14
2022-07-30T10:53:35.425Z,24.11
2022-07-30T10:56:40.398Z,23.98
2022-07-30T11:00:00.809Z,24.06
2022-07-30T11:03:16.298Z,23.82
2022-07-30T11:06:24.590Z,23.96
2022-07-30T11:09:43.572Z,23.90
2022-07-30T11:12:56.392Z,24.03
2022-07-30T11:16:02.387Z,23.83
2022-07-30T11:19:55.315Z,23.81
2022-07-30T11:22:45.411Z,23.90
2022-07-30T11:25:56.054Z,23.89
2022-07-30T11:29:00.225Z,23.70
2022-07-30T11:32:34.121Z,23.75
2022-07-30T11:35:38.867Z,23.77
2022-07-30T11:39:06.959Z,23.79
2022-07-30T11:42:29.430Z,23.83
2022-07-30T11:45:34.592Z,23.84
2022-07-30T11:48:41.909Z,23.75
2022-07-30T11:51:48.192Z,23.70
2022-07-30T11:54:56.603Z,23.69
2022-07-30T11:58:03.481Z,23.69
2022-07-30T12:01:14.353Z,23.43
2022-07-30T12:04:19.902Z,23.55
2022-07-30T12:07:27.308Z,23.62
2022-07-30T12:10:32.586Z,23.60
2022-07-30T12:13:44.648Z,23.52
2022-07-30T12:16:56.606Z,23.58
2022-07-30T12:20:00.967Z,23.59
2022-07-30T12:23:12.939Z,23.55
2022-07-30T12:26:29.732Z,23.38
2022-07-30T12:29:36.072Z,23.49
2022-07-30T12:32:40.742Z,23.50
2022-07-30T12:35:51.049Z,23.58
2022-07-30T12:38:55.680Z,23.49
2022-07-30T12:42:00.373Z,23.47
2022-07-30T12:45:04.393Z,23.19
2022-07-30T12:48:12.122Z,23.35
2022-07-30T12:51:20.299Z,23.33
2022-07-30T12:54:25.535Z,23.45
2022-07-30T12:57:50.318Z,23.39
2022-07-30T13:00:56.062Z,23.30
2022-07-30T13:04:08.075Z,23.38
2022-07-30T13:07:13.973Z,23.39
2022-07-30T13:10:19.803Z,23.35
2022-07-30T13:13:24.717Z,23.20
2022-07-30T13:16:33.599Z,23.27
2022-07-30T13:19:39.199Z,23.18
2022-07-30T13:22:44.054Z,23.25
2022-07-30T13:25:48.410Z,23.11
2022-07-30T13:28:52.932Z,23.15
2022-07-30T13:31:57.272Z,23.04
2022-07-30T13:35:02.046Z,22.88
2022-07-30T13:38:10.328Z,22.97
2022-07-30T13:41:15.326Z,22.88
2022-07-30T13:44:19.803Z,22.87
2022-07-30T13:47:24.561Z,22.94
2022-07-30T13:50:28.845Z,22.80
2022-07-30T13:53:33.531Z,22.87
2022-07-30T13:56:40.917Z,22.69
2022-07-30T13:59:45.533Z,22.74
2022-07-30T14:02:50.006Z,22.72
2022-07-30T14:05:54.763Z,22.70
2022-07-30T14:09:01.418Z,22.65
2022-07-30T14:12:06.651Z,22.65
2022-07-30T14:15:14.919Z,22.65
2022-07-30T14:18:22.025Z,22.61
2022-07-30T14:21:26.648Z,22.58
2022-07-30T14:24:31.297Z,22.50
2022-07-30T14:27:35.886Z,22.53
2022-07-30T14:30:39.908Z,22.39
2022-07-30T14:33:44.312Z,22.58
2022-07-30T14:36:48.602Z,22.47
2022-07-30T14:39:53.159Z,22.46
2022-07-30T14:42:57.884Z,22.33
2022-07-30T14:46:02.358Z,22.52
2022-07-30T14:49:06.601Z,22.51
2022-07-30T14:52:11.838Z,22.52
2022-07-30T14:55:15.977Z,22.33
2022-07-30T14:58:20.228Z,22.42
2022-07-30T15:01:24.468Z,22.37
2022-07-30T15:04:29.564Z,22.32
2022-07-30T15:07:34.607Z,22.39
2022-07-30T15:10:41.282Z,22.36
2022-07-30T15:13:49.673Z,22.31
2022-07-30T15:16:57.530Z,22.32
2022-07-30T15:20:08.756Z,22.36
2022-07-30T15:23:13.664Z,22.37
2022-07-30T15:26:17.942Z,22.50
2022-07-30T15:29:23.782Z,22.45
2022-07-30T15:32:27.967Z,22.39
2022-07-30T15:35:33.267Z,22.51
2022-07-30T15:38:38.438Z,22.43
2022-07-30T15:41:42.996Z,22.53
2022-07-30T15:44:49.062Z,22.47
2022-07-30T15:47:53.250Z,22.54
2022-07-30T15:51:05.969Z,22.44
2022-07-30T15:54:09.940Z,22.57
2022-07-30T15:57:14.445Z,22.59
2022-07-30T16:00:18.581Z,22.65
2022-07-30T16:03:22.737Z,22.58
2022-07-30T16:06:27.640Z,22.59
2022-07-30T16:09:32.364Z,22.63
2022-07-30T16:12:36.724Z,22.61
2022-07-30T16:15:41.640Z,22.59
2022-07-30T16:18:45.747Z,22.53
2022-07-30T16:21:53.032Z,22.59
2022-07-30T16:24:57.437Z,22.52
2022-07-30T16:28:02.307Z,22.48
2022-07-30T16:31:06.951Z,22.43
2022-07-30T16:34:11.154Z,22.35
2022-07-30T16:37:16.150Z,22.55
2022-07-30T16:40:20.849Z,22.43
2022-07-30T16:43:25.313Z,22.44
2022-07-30T16:46:29.804Z,22.38
2022-07-30T16:49:34.503Z,22.46
2022-07-30T16:52:39.210Z,22.39
2022-07-30T16:55:45.559Z,22.52
2022-07-30T16:58:49.798Z,22.48
2022-07-30T17:01:54.047Z,22.54
2022-07-30T17:04:58.483Z,22.48
2022-07-30T17:08:03.421Z,22.39
2022-07-30T17:11:09.796Z,22.42
2022-07-30T17:14:16.466Z,22.39
2022-07-30T17:17:21.240Z,22.39
2022-07-30T17:20:25.431Z,22.34
2022-07-30T17:23:30.999Z,22.34
2022-07-30T17:26:36.118Z,22.21
2022-07-30T17:29:50.389Z,22.37
2022-07-30T17:32:55.499Z,22.36
2022-07-30T17:35:59.897Z,22.34
2022-07-30T17:39:04.981Z,22.30
2022-07-30T17:42:10.044Z,22.17
2022-07-30T17:45:14.770Z,22.14
2022-07-30T17:48:19.687Z,22.06
2022-07-30T17:51:24.347Z,21.98
2022-07-30T17:54:28.993Z,21.76
2022-07-30T17:57:33.368Z,21.97
2022-07-30T18:00:37.790Z,21.99
2022-07-30T18:03:45.021Z,21.86
2022-07-30T18:06:51.526Z,21.78
2022-07-30T18:09:55.948Z,21.94
2022-07-30T18:13:25.990Z,21.84
2022-07-30T18:16:25.347Z,21.89
2022-07-30T18:19:29.866Z,21.97
2022-07-30T18:22:34.656Z,21.95
2022-07-30T18:25:53.110Z,21.97
2022-07-30T18:28:58.651Z,21.97
2022-07-30T18:32:03.739Z,21.92
2022-07-30T18:35:13.777Z,21.79
2022-07-30T18:38:19.651Z,21.79
2022-07-30T18:41:24.374Z,21.57
2022-07-30T18:44:28.691Z,21.79
2022-07-30T18:47:33.468Z,21.78
2022-07-30T18:50:37.664Z,21.84
2022-07-30T18:53:43.334Z,21.77
2022-07-30T18:56:47.989Z,21.84
2022-07-30T18:59:52.699Z,21.86
